sensor_id;sensor_type;location;lat;lon;timestamp;pressure;altitude;pressure_sealevel;temperature;humidity
5595;BME280;1003;48.002;7.788;2023-02-16T00:01:47;103505.19;;;-2.30;100.00
5595;BME280;1003;48.002;7.788;2023-02-16T00:04:19;103549.47;;;-2.16;100.00
5595;BME280;1003;48.002;7.788;2023-02-16T00:06:46;103520.16;;;-2.36;100.00
5595;BME280;1003;48.002;7.788;2023-02-16T00:09:14;103505.06;;;-2.46;100.00
5595;BME280;1003;48.002;7.788;2023-02-16T00:11:42;103526.88;;;-2.42;100.00
5595;BME280;1003;48.002;7.788;2023-02-16T00:14:27;103550.41;;;-2.37;100.00
5595;BME280;1003;48.002;7.788;2023-02-16T00:16:56;103587.88;;;-2.18;100.00
5595;BME280;1003;48.002;7.788;2023-02-16T00:19:27;103600.16;;;-2.11;100.00
5595;BME280;1003;48.002;7.788;2023-02-16T00:21:57;103580.16;;;-2.28;100.00
5595;BME280;1003;48.002;7.788;2023-02-16T00:24:26;103591.78;;;-2.34;100.00
5595;BME280;1003;48.002;7.788;2023-02-16T00:26:55;103597.78;;;-2.40;100.00
5595;BME280;1003;48.002;7.788;2023-02-16T00:29:26;103605.88;;;-2.41;100.00
5595;BME280;1003;48.002;7.788;2023-02-16T00:31:56;103632.63;;;-2.36;100.00
5595;BME280;1003;48.002;7.788;2023-02-16T00:34:31;103644.25;;;-2.35;100.00
5595;BME280;1003;48.002;7.788;2023-02-16T00:37:02;103654.09;;;-2.35;100.00
5595;BME280;1003;48.002;7.788;2023-02-16T00:39:31;103644.03;;;-2.37;100.00
5595;BME280;1003;48.002;7.788;2023-02-16T00:42:01;103660.97;;;-2.40;100.00
5595;BME280;1003;48.002;7.788;2023-02-16T00:44:36;103688.75;;;-2.20;100.00
5595;BME280;1003;48.002;7.788;2023-02-16T00:47:18;103731.16;;;-2.01;100.00
5595;BME280;1003;48.002;7.788;2023-02-16T00:49:49;103726.22;;;-2.01;100.00
5595;BME280;1003;48.002;7.788;2023-02-16T00:52:31;103741.91;;;-1.93;100.00
5595;BME280;1003;48.002;7.788;2023-02-16T00:55:00;103751.25;;;-1.98;100.00
5595;BME280;1003;48.002;7.788;2023-02-16T00:57:33;103815.13;;;-1.49;100.00
5595;BME280;1003;48.002;7.788;2023-02-16T01:00:07;103843.63;;;-1.30;100.00
5595;BME280;1003;48.002;7.788;2023-02-16T01:02:38;103856.19;;;-1.28;100.00
5595;BME280;1003;48.002;7.788;2023-02-16T01:05:07;103850.19;;;-1.38;100.00
5595;BME280;1003;48.002;7.788;2023-02-16T01:07:34;103852.69;;;-1.45;100.00
5595;BME280;1003;48.002;7.788;2023-02-16T01:10:19;103871.88;;;-1.42;100.00
5595;BME280;1003;48.002;7.788;2023-02-16T01:13:05;103849.50;;;-1.72;100.00
5595;BME280;1003;48.002;7.788;2023-02-16T01:15:32;103846.53;;;-1.91;100.00
5595;BME280;1003;48.002;7.788;2023-02-16T01:17:59;103844.03;;;-2.05;100.00
5595;BME280;1003;48.002;7.788;2023-02-16T01:20:27;103842.28;;;-2.14;100.00
5595;BME280;1003;48.002;7.788;2023-02-16T01:22:54;103850.19;;;-2.16;100.00
5595;BME280;1003;48.002;7.788;2023-02-16T01:25:22;103847.19;;;-2.21;100.00
5595;BME280;1003;48.002;7.788;2023-02-16T01:27:49;103851.59;;;-2.25;100.00
5595;BME280;1003;48.002;7.788;2023-02-16T01:30:19;103848.06;;;-2.27;100.00
5595;BME280;1003;48.002;7.788;2023-02-16T01:32:47;103861.44;;;-2.32;100.00
5595;BME280;1003;48.002;7.788;2023-02-16T01:35:17;103873.03;;;-2.31;100.00
5595;BME280;1003;48.002;7.788;2023-02-16T01:37:45;103885.38;;;-2.31;100.00
5595;BME280;1003;48.002;7.788;2023-02-16T01:40:27;103885.19;;;-2.33;100.00
5595;BME280;1003;48.002;7.788;2023-02-16T01:43:02;103878.13;;;-2.44;100.00
5595;BME280;1003;48.002;7.788;2023-02-16T01:45:33;103861.91;;;-2.56;100.00
5595;BME280;1003;48.002;7.788;2023-02-16T01:48:03;103856.06;;;-2.64;100.00
5595;BME280;1003;48.002;7.788;2023-02-16T01:50:43;103861.38;;;-2.61;100.00
5595;BME280;1003;48.002;7.788;2023-02-16T01:53:22;103888.88;;;-2.44;100.00
5595;BME280;1003;48.002;7.788;2023-02-16T01:55:55;103886.22;;;-2.52;100.00
5595;BME280;1003;48.002;7.788;2023-02-16T01:58:35;103890.59;;;-2.50;100.00
5595;BME280;1003;48.002;7.788;2023-02-16T02:01:38;103903.31;;;-2.47;100.00
5595;BME280;1003;48.002;7.788;2023-02-16T02:04:27;103933.44;;;-2.35;100.00
5595;BME280;1003;48.002;7.788;2023-02-16T02:07:20;103967.63;;;-2.24;100.00
5595;BME280;1003;48.002;7.788;2023-02-16T02:10:00;103949.25;;;-2.40;100.00
5595;BME280;1003;48.002;7.788;2023-02-16T02:12:38;103930.00;;;-2.57;100.00
5595;BME280;1003;48.002;7.788;2023-02-16T02:15:08;103932.41;;;-2.64;100.00
5595;BME280;1003;48.002;7.788;2023-02-16T02:17:35;103927.69;;;-2.62;100.00
5595;BME280;1003;48.002;7.788;2023-02-16T02:20:11;103952.59;;;-2.47;100.00
5595;BME280;1003;48.002;7.788;2023-02-16T02:23:21;103991.09;;;-2.13;100.00
5595;BME280;1003;48.002;7.788;2023-02-16T02:26:48;104049.00;;;-1.75;100.00
5595;BME280;1003;48.002;7.788;2023-02-16T02:29:40;104083.59;;;-1.54;100.00
5595;BME280;1003;48.002;7.788;2023-02-16T02:32:23;104112.88;;;-1.43;100.00
5595;BME280;1003;48.002;7.788;2023-02-16T02:35:14;104125.94;;;-1.44;100.00
5595;BME280;1003;48.002;7.788;2023-02-16T02:37:52;104138.78;;;-1.46;100.00
5595;BME280;1003;48.002;7.788;2023-02-16T02:40:36;104125.00;;;-1.59;100.00
5595;BME280;1003;48.002;7.788;2023-02-16T02:43:15;104118.06;;;-1.68;100.00
5595;BME280;1003;48.002;7.788;2023-02-16T02:45:52;104130.97;;;-1.64;100.00
5595;BME280;1003;48.002;7.788;2023-02-16T02:48:21;104128.81;;;-1.68;100.00
5595;BME280;1003;48.002;7.788;2023-02-16T02:50:52;104134.28;;;-1.70;100.00
5595;BME280;1003;48.002;7.788;2023-02-16T02:53:42;104138.13;;;-1.72;100.00
5595;BME280;1003;48.002;7.788;2023-02-16T02:56:14;104148.94;;;-1.65;100.00
5595;BME280;1003;48.002;7.788;2023-02-16T02:59:05;104159.16;;;-1.62;100.00
5595;BME280;1003;48.002;7.788;2023-02-16T03:01:57;104156.84;;;-1.67;100.00
5595;BME280;1003;48.002;7.788;2023-02-16T03:04:29;104159.66;;;-1.71;100.00
5595;BME280;1003;48.002;7.788;2023-02-16T03:07:00;104164.09;;;-1.62;100.00
5595;BME280;1003;48.002;7.788;2023-02-16T03:09:28;104171.16;;;-1.58;100.00
5595;BME280;1003;48.002;7.788;2023-02-16T03:11:57;104185.13;;;-1.51;100.00
5595;BME280;1003;48.002;7.788;2023-02-16T03:14:50;104220.63;;;-1.36;100.00
5595;BME280;1003;48.002;7.788;2023-02-16T03:17:24;104216.94;;;-1.40;100.00
5595;BME280;1003;48.002;7.788;2023-02-16T03:20:13;104241.63;;;-1.33;100.00
5595;BME280;1003;48.002;7.788;2023-02-16T03:23:00;104233.09;;;-1.49;100.00
5595;BME280;1003;48.002;7.788;2023-02-16T03:25:46;104197.31;;;-1.79;100.00
5595;BME280;1003;48.002;7.788;2023-02-16T03:28:33;104170.38;;;-2.05;100.00
5595;BME280;1003;48.002;7.788;2023-02-16T03:31:27;104152.53;;;-2.17;100.00
5595;BME280;1003;48.002;7.788;2023-02-16T03:33:56;104159.94;;;-2.17;100.00
5595;BME280;1003;48.002;7.788;2023-02-16T03:36:26;104151.78;;;-2.23;100.00
5595;BME280;1003;48.002;7.788;2023-02-16T03:38:54;104154.66;;;-2.20;100.00
5595;BME280;1003;48.002;7.788;2023-02-16T03:41:23;104174.41;;;-2.13;100.00
5595;BME280;1003;48.002;7.788;2023-02-16T03:43:50;104174.03;;;-2.16;100.00
5595;BME280;1003;48.002;7.788;2023-02-16T03:46:18;104219.63;;;-1.92;100.00
5595;BME280;1003;48.002;7.788;2023-02-16T03:48:46;104211.81;;;-2.02;100.00
5595;BME280;1003;48.002;7.788;2023-02-16T03:51:13;104192.84;;;-2.16;100.00
5595;BME280;1003;48.002;7.788;2023-02-16T03:53:40;104231.22;;;-1.98;100.00
5595;BME280;1003;48.002;7.788;2023-02-16T03:56:07;104210.69;;;-2.12;100.00
5595;BME280;1003;48.002;7.788;2023-02-16T03:58:34;104205.16;;;-2.23;100.00
5595;BME280;1003;48.002;7.788;2023-02-16T04:01:01;104191.19;;;-2.30;100.00
5595;BME280;1003;48.002;7.788;2023-02-16T04:03:28;104180.38;;;-2.38;100.00
5595;BME280;1003;48.002;7.788;2023-02-16T04:05:57;104180.91;;;-2.40;100.00
5595;BME280;1003;48.002;7.788;2023-02-16T04:08:24;104199.81;;;-2.26;100.00
5595;BME280;1003;48.002;7.788;2023-02-16T04:10:51;104195.16;;;-2.38;100.00
5595;BME280;1003;48.002;7.788;2023-02-16T04:13:21;104195.69;;;-2.40;100.00
5595;BME280;1003;48.002;7.788;2023-02-16T04:15:48;104189.50;;;-2.44;100.00
5595;BME280;1003;48.002;7.788;2023-02-16T04:18:15;104205.72;;;-2.39;100.00
5595;BME280;1003;48.002;7.788;2023-02-16T04:20:42;104247.09;;;-2.16;100.00
5595;BME280;1003;48.002;7.788;2023-02-16T04:23:10;104243.69;;;-2.24;100.00
5595;BME280;1003;48.002;7.788;2023-02-16T04:25:37;104226.75;;;-2.28;100.00
5595;BME280;1003;48.002;7.788;2023-02-16T04:28:04;104230.50;;;-2.24;100.00
5595;BME280;1003;48.002;7.788;2023-02-16T04:30:31;104239.47;;;-2.25;100.00
5595;BME280;1003;48.002;7.788;2023-02-16T04:32:59;104228.78;;;-2.38;100.00
5595;BME280;1003;48.002;7.788;2023-02-16T04:35:26;104252.94;;;-2.35;100.00
5595;BME280;1003;48.002;7.788;2023-02-16T04:37:53;104235.25;;;-2.46;100.00
5595;BME280;1003;48.002;7.788;2023-02-16T04:40:21;104225.50;;;-2.51;100.00
5595;BME280;1003;48.002;7.788;2023-02-16T04:42:48;104228.81;;;-2.58;100.00
5595;BME280;1003;48.002;7.788;2023-02-16T04:45:16;104224.94;;;-2.56;100.00
5595;BME280;1003;48.002;7.788;2023-02-16T04:47:43;104229.28;;;-2.60;100.00
5595;BME280;1003;48.002;7.788;2023-02-16T04:50:11;104227.00;;;-2.59;100.00
5595;BME280;1003;48.002;7.788;2023-02-16T04:52:38;104222.41;;;-2.63;100.00
5595;BME280;1003;48.002;7.788;2023-02-16T04:55:06;104214.63;;;-2.66;100.00
5595;BME280;1003;48.002;7.788;2023-02-16T04:57:36;104227.91;;;-2.58;100.00
5595;BME280;1003;48.002;7.788;2023-02-16T05:00:05;104246.47;;;-2.48;100.00
5595;BME280;1003;48.002;7.788;2023-02-16T05:02:33;104272.44;;;-2.37;100.00
5595;BME280;1003;48.002;7.788;2023-02-16T05:05:00;104254.78;;;-2.47;100.00
5595;BME280;1003;48.002;7.788;2023-02-16T05:07:27;104248.19;;;-2.54;100.00
5595;BME280;1003;48.002;7.788;2023-02-16T05:09:54;104238.25;;;-2.61;100.00
5595;BME280;1003;48.002;7.788;2023-02-16T05:12:21;104244.25;;;-2.59;100.00
5595;BME280;1003;48.002;7.788;2023-02-16T05:15:07;104272.78;;;-2.41;100.00
5595;BME280;1003;48.002;7.788;2023-02-16T05:17:34;104264.81;;;-2.46;100.00
5595;BME280;1003;48.002;7.788;2023-02-16T05:20:02;104267.63;;;-2.43;100.00
5595;BME280;1003;48.002;7.788;2023-02-16T05:22:29;104278.06;;;-2.38;100.00
5595;BME280;1003;48.002;7.788;2023-02-16T05:24:58;104292.75;;;-2.32;100.00
5595;BME280;1003;48.002;7.788;2023-02-16T05:27:28;104278.78;;;-2.39;100.00
5595;BME280;1003;48.002;7.788;2023-02-16T05:29:56;104300.47;;;-2.36;100.00
5595;BME280;1003;48.002;7.788;2023-02-16T05:32:25;104294.25;;;-2.40;100.00
5595;BME280;1003;48.002;7.788;2023-02-16T05:34:52;104287.56;;;-2.41;100.00
5595;BME280;1003;48.002;7.788;2023-02-16T05:37:19;104302.72;;;-2.38;100.00
5595;BME280;1003;48.002;7.788;2023-02-16T05:39:46;104315.50;;;-2.28;100.00
5595;BME280;1003;48.002;7.788;2023-02-16T05:42:13;104339.84;;;-2.24;100.00
5595;BME280;1003;48.002;7.788;2023-02-16T05:44:40;104354.50;;;-2.18;100.00
5595;BME280;1003;48.002;7.788;2023-02-16T05:47:07;104359.63;;;-2.17;100.00
5595;BME280;1003;48.002;7.788;2023-02-16T05:49:35;104357.16;;;-2.17;100.00
5595;BME280;1003;48.002;7.788;2023-02-16T05:52:02;104369.00;;;-2.14;100.00
5595;BME280;1003;48.002;7.788;2023-02-16T05:54:29;104365.38;;;-2.23;100.00
5595;BME280;1003;48.002;7.788;2023-02-16T05:56:56;104351.00;;;-2.33;100.00
5595;BME280;1003;48.002;7.788;2023-02-16T05:59:23;104351.13;;;-2.39;100.00
5595;BME280;1003;48.002;7.788;2023-02-16T06:01:50;104357.34;;;-2.35;100.00
5595;BME280;1003;48.002;7.788;2023-02-16T06:04:18;104374.34;;;-2.24;100.00
5595;BME280;1003;48.002;7.788;2023-02-16T06:06:47;104393.66;;;-2.14;100.00
5595;BME280;1003;48.002;7.788;2023-02-16T06:09:15;104397.38;;;-2.11;100.00
5595;BME280;1003;48.002;7.788;2023-02-16T06:11:42;104412.97;;;-2.04;100.00
5595;BME280;1003;48.002;7.788;2023-02-16T06:14:12;104415.50;;;-2.10;100.00
5595;BME280;1003;48.002;7.788;2023-02-16T06:16:42;104418.69;;;-2.11;100.00
5595;BME280;1003;48.002;7.788;2023-02-16T06:19:10;104430.31;;;-2.10;100.00
5595;BME280;1003;48.002;7.788;2023-02-16T06:21:38;104446.03;;;-2.09;100.00
5595;BME280;1003;48.002;7.788;2023-02-16T06:24:10;104445.31;;;-2.08;100.00
5595;BME280;1003;48.002;7.788;2023-02-16T06:26:38;104457.22;;;-1.99;100.00
5595;BME280;1003;48.002;7.788;2023-02-16T06:29:06;104483.44;;;-1.87;100.00
5595;BME280;1003;48.002;7.788;2023-02-16T06:31:33;104510.13;;;-1.77;100.00
5595;BME280;1003;48.002;7.788;2023-02-16T06:34:00;104528.94;;;-1.65;100.00
5595;BME280;1003;48.002;7.788;2023-02-16T06:36:28;104533.28;;;-1.69;100.00
5595;BME280;1003;48.002;7.788;2023-02-16T06:38:55;104531.72;;;-1.69;100.00
5595;BME280;1003;48.002;7.788;2023-02-16T06:41:24;104550.31;;;-1.58;100.00
5595;BME280;1003;48.002;7.788;2023-02-16T06:44:00;104578.66;;;-1.49;100.00
5595;BME280;1003;48.002;7.788;2023-02-16T06:46:27;104586.94;;;-1.48;100.00
5595;BME280;1003;48.002;7.788;2023-02-16T06:48:55;104588.34;;;-1.50;100.00
5595;BME280;1003;48.002;7.788;2023-02-16T06:51:23;104566.91;;;-1.57;100.00
5595;BME280;1003;48.002;7.788;2023-02-16T06:53:50;104583.41;;;-1.50;100.00
5595;BME280;1003;48.002;7.788;2023-02-16T06:56:17;104599.34;;;-1.41;100.00
5595;BME280;1003;48.002;7.788;2023-02-16T06:58:45;104642.81;;;-1.16;100.00
5595;BME280;1003;48.002;7.788;2023-02-16T07:01:12;104710.44;;;-0.76;100.00
5595;BME280;1003;48.002;7.788;2023-02-16T07:03:40;104753.25;;;-0.50;100.00
5595;BME280;1003;48.002;7.788;2023-02-16T07:06:07;104784.44;;;-0.38;100.00
5595;BME280;1003;48.002;7.788;2023-02-16T07:08:34;104809.81;;;-0.26;100.00
5595;BME280;1003;48.002;7.788;2023-02-16T07:11:01;104828.06;;;-0.18;100.00
5595;BME280;1003;48.002;7.788;2023-02-16T07:13:28;104851.31;;;-0.11;100.00
5595;BME280;1003;48.002;7.788;2023-02-16T07:15:57;104869.19;;;-0.06;100.00
5595;BME280;1003;48.002;7.788;2023-02-16T07:18:24;104883.13;;;-0.07;100.00
5595;BME280;1003;48.002;7.788;2023-02-16T07:20:51;104886.50;;;-0.06;100.00
5595;BME280;1003;48.002;7.788;2023-02-16T07:23:18;104923.06;;;0.09;100.00
5595;BME280;1003;48.002;7.788;2023-02-16T07:25:45;104952.34;;;0.19;100.00
5595;BME280;1003;48.002;7.788;2023-02-16T07:28:13;104970.06;;;0.22;100.00
5595;BME280;1003;48.002;7.788;2023-02-16T07:30:40;104980.13;;;0.23;100.00
5595;BME280;1003;48.002;7.788;2023-02-16T07:33:09;105004.47;;;0.33;100.00
5595;BME280;1003;48.002;7.788;2023-02-16T07:35:37;105048.69;;;0.50;100.00
5595;BME280;1003;48.002;7.788;2023-02-16T07:38:04;105057.00;;;0.50;100.00
5595;BME280;1003;48.002;7.788;2023-02-16T07:40:32;105044.50;;;0.23;100.00
5595;BME280;1003;48.002;7.788;2023-02-16T07:43:01;105073.88;;;0.40;100.00
5595;BME280;1003;48.002;7.788;2023-02-16T07:45:28;105107.88;;;0.61;100.00
5595;BME280;1003;48.002;7.788;2023-02-16T07:47:57;105149.81;;;0.79;100.00
5595;BME280;1003;48.002;7.788;2023-02-16T07:50:25;105194.16;;;1.03;100.00
5595;BME280;1003;48.002;7.788;2023-02-16T07:52:53;105216.03;;;1.13;100.00
5595;BME280;1003;48.002;7.788;2023-02-16T07:55:20;105247.31;;;1.25;100.00
5595;BME280;1003;48.002;7.788;2023-02-16T07:57:47;105260.66;;;1.33;100.00
5595;BME280;1003;48.002;7.788;2023-02-16T08:00:20;105293.56;;;1.45;100.00
5595;BME280;1003;48.002;7.788;2023-02-16T08:02:47;105302.88;;;1.53;100.00
5595;BME280;1003;48.002;7.788;2023-02-16T08:05:14;105321.41;;;1.62;100.00
5595;BME280;1003;48.002;7.788;2023-02-16T08:07:43;105353.06;;;1.77;100.00
5595;BME280;1003;48.002;7.788;2023-02-16T08:10:10;105399.06;;;2.01;100.00
5595;BME280;1003;48.002;7.788;2023-02-16T08:12:38;105432.56;;;2.17;100.00
5595;BME280;1003;48.002;7.788;2023-02-16T08:15:06;105465.16;;;2.33;100.00
5595;BME280;1003;48.002;7.788;2023-02-16T08:17:33;105515.75;;;2.53;100.00
5595;BME280;1003;48.002;7.788;2023-02-16T08:20:01;105561.38;;;2.74;100.00
5595;BME280;1003;48.002;7.788;2023-02-16T08:22:29;105633.66;;;3.15;100.00
5595;BME280;1003;48.002;7.788;2023-02-16T08:24:59;105732.50;;;3.56;100.00
5595;BME280;1003;48.002;7.788;2023-02-16T08:27:26;105797.53;;;3.72;100.00
5595;BME280;1003;48.002;7.788;2023-02-16T08:29:53;105853.00;;;3.90;100.00
5595;BME280;1003;48.002;7.788;2023-02-16T08:32:20;105891.00;;;4.02;100.00
5595;BME280;1003;48.002;7.788;2023-02-16T08:34:47;105944.63;;;4.26;100.00
5595;BME280;1003;48.002;7.788;2023-02-16T08:37:14;106001.13;;;4.52;100.00
5595;BME280;1003;48.002;7.788;2023-02-16T08:39:41;106081.41;;;4.89;100.00
5595;BME280;1003;48.002;7.788;2023-02-16T08:42:11;106135.56;;;5.10;100.00
5595;BME280;1003;48.002;7.788;2023-02-16T08:44:39;106187.69;;;5.34;100.00
5595;BME280;1003;48.002;7.788;2023-02-16T08:47:07;106228.69;;;5.56;100.00
5595;BME280;1003;48.002;7.788;2023-02-16T08:49:36;106249.72;;;5.78;100.00
5595;BME280;1003;48.002;7.788;2023-02-16T08:52:04;106245.09;;;6.01;100.00
5595;BME280;1003;48.002;7.788;2023-02-16T08:54:31;106173.41;;;6.28;100.00
5595;BME280;1003;48.002;7.788;2023-02-16T08:56:59;105957.28;;;6.48;100.00
5595;BME280;1003;48.002;7.788;2023-02-16T08:59:29;105517.84;;;6.63;100.00
5595;BME280;1003;48.002;7.788;2023-02-16T09:01:58;104586.41;;;6.71;100.00
5595;BME280;1003;48.002;7.788;2023-02-16T09:04:27;103943.97;;;6.86;100.00
5595;BME280;1003;48.002;7.788;2023-02-16T09:06:55;103872.78;;;7.02;100.00
5595;BME280;1003;48.002;7.788;2023-02-16T09:09:24;103792.91;;;7.16;100.00
5595;BME280;1003;48.002;7.788;2023-02-16T09:11:52;103723.16;;;7.30;100.00
5595;BME280;1003;48.002;7.788;2023-02-16T09:14:19;103656.97;;;7.49;100.00
5595;BME280;1003;48.002;7.788;2023-02-16T09:16:49;103598.88;;;7.65;100.00
5595;BME280;1003;48.002;7.788;2023-02-16T09:19:18;103513.81;;;7.78;100.00
5595;BME280;1003;48.002;7.788;2023-02-16T09:21:47;103444.25;;;8.10;100.00
5595;BME280;1003;48.002;7.788;2023-02-16T09:24:17;103353.19;;;8.35;100.00
5595;BME280;1003;48.002;7.788;2023-02-16T09:26:44;103257.69;;;8.57;100.00
5595;BME280;1003;48.002;7.788;2023-02-16T09:29:12;103110.03;;;8.76;100.00
5595;BME280;1003;48.002;7.788;2023-02-16T09:31:40;103147.72;;;9.04;100.00
5595;BME280;1003;48.002;7.788;2023-02-16T09:34:17;103000.16;;;9.13;100.00
5595;BME280;1003;48.002;7.788;2023-02-16T09:36:45;102813.31;;;9.39;100.00
5595;BME280;1003;48.002;7.788;2023-02-16T09:39:13;102590.53;;;9.53;100.00
5595;BME280;1003;48.002;7.788;2023-02-16T09:42:03;102287.84;;;9.61;100.00
5595;BME280;1003;48.002;7.788;2023-02-16T09:44:47;102048.63;;;9.67;100.00
5595;BME280;1003;48.002;7.788;2023-02-16T09:47:23;101698.25;;;9.78;100.00
5595;BME280;1003;48.002;7.788;2023-02-16T09:49:58;101350.50;;;9.97;100.00
5595;BME280;1003;48.002;7.788;2023-02-16T09:52:34;100600.38;;;10.05;100.00
5595;BME280;1003;48.002;7.788;2023-02-16T09:55:09;100440.72;;;10.25;100.00
5595;BME280;1003;48.002;7.788;2023-02-16T09:57:49;100306.00;;;10.40;100.00
5595;BME280;1003;48.002;7.788;2023-02-16T10:00:30;100227.31;;;10.45;100.00
5595;BME280;1003;48.002;7.788;2023-02-16T10:03:22;100144.41;;;10.59;100.00
5595;BME280;1003;48.002;7.788;2023-02-16T10:06:07;100071.53;;;10.59;100.00
5595;BME280;1003;48.002;7.788;2023-02-16T10:08:48;100058.16;;;10.69;100.00
5595;BME280;1003;48.002;7.788;2023-02-16T10:11:25;100088.34;;;10.66;100.00
5595;BME280;1003;48.002;7.788;2023-02-16T10:14:23;100073.31;;;10.91;100.00
5595;BME280;1003;48.002;7.788;2023-02-16T10:17:05;100071.66;;;10.99;100.00
5595;BME280;1003;48.002;7.788;2023-02-16T10:19:38;100054.94;;;11.16;100.00
5595;BME280;1003;48.002;7.788;2023-02-16T10:22:15;100035.63;;;11.17;100.00
5595;BME280;1003;48.002;7.788;2023-02-16T10:24:53;100008.81;;;11.33;100.00
5595;BME280;1003;48.002;7.788;2023-02-16T10:27:32;99983.63;;;11.37;100.00
5595;BME280;1003;48.002;7.788;2023-02-16T10:30:04;99948.38;;;11.49;100.00
5595;BME280;1003;48.002;7.788;2023-02-16T10:32:47;99926.53;;;11.65;100.00
5595;BME280;1003;48.002;7.788;2023-02-16T10:35:28;99885.38;;;11.75;100.00
5595;BME280;1003;48.002;7.788;2023-02-16T10:38:08;99869.38;;;11.96;100.00
5595;BME280;1003;48.002;7.788;2023-02-16T10:40:49;99844.97;;;12.03;100.00
5595;BME280;1003;48.002;7.788;2023-02-16T10:43:28;99813.88;;;12.04;100.00
5595;BME280;1003;48.002;7.788;2023-02-16T10:46:00;99787.75;;;12.20;100.00
5595;BME280;1003;48.002;7.788;2023-02-16T10:48:29;99770.06;;;12.25;100.00
5595;BME280;1003;48.002;7.788;2023-02-16T10:51:01;99755.78;;;12.25;100.00
5595;BME280;1003;48.002;7.788;2023-02-16T10:53:39;99748.09;;;12.44;100.00
5595;BME280;1003;48.002;7.788;2023-02-16T10:56:40;99719.47;;;12.46;100.00
5595;BME280;1003;48.002;7.788;2023-02-16T10:59:15;99722.03;;;12.45;100.00
5595;BME280;1003;48.002;7.788;2023-02-16T11:01:46;99709.34;;;12.52;100.00
5595;BME280;1003;48.002;7.788;2023-02-16T11:04:35;99705.22;;;12.45;100.00
5595;BME280;1003;48.002;7.788;2023-02-16T11:07:06;99713.63;;;12.43;100.00
5595;BME280;1003;48.002;7.788;2023-02-16T11:09:36;99705.16;;;12.50;100.00
5595;BME280;1003;48.002;7.788;2023-02-16T11:12:17;99700.00;;;12.62;100.00
5595;BME280;1003;48.002;7.788;2023-02-16T11:14:52;99698.06;;;12.87;100.00
5595;BME280;1003;48.002;7.788;2023-02-16T11:17:21;99697.06;;;13.00;100.00
5595;BME280;1003;48.002;7.788;2023-02-16T11:19:54;99696.84;;;13.19;100.00
5595;BME280;1003;48.002;7.788;2023-02-16T11:22:32;99711.91;;;13.29;100.00
5595;BME280;1003;48.002;7.788;2023-02-16T11:25:23;99725.31;;;13.31;100.00
5595;BME280;1003;48.002;7.788;2023-02-16T11:27:55;99730.91;;;13.56;100.00
5595;BME280;1003;48.002;7.788;2023-02-16T11:30:31;99739.06;;;13.75;100.00
5595;BME280;1003;48.002;7.788;2023-02-16T11:33:01;99772.34;;;14.05;100.00
5595;BME280;1003;48.002;7.788;2023-02-16T11:35:31;99781.47;;;14.13;100.00
5595;BME280;1003;48.002;7.788;2023-02-16T11:38:25;99810.63;;;14.34;100.00
5595;BME280;1003;48.002;7.788;2023-02-16T11:40:56;99830.91;;;14.33;100.00
5595;BME280;1003;48.002;7.788;2023-02-16T11:43:27;99846.53;;;14.59;100.00
5595;BME280;1003;48.002;7.788;2023-02-16T11:45:59;99858.78;;;14.84;100.00
5595;BME280;1003;48.002;7.788;2023-02-16T11:48:29;99875.78;;;14.77;97.31
5595;BME280;1003;48.002;7.788;2023-02-16T11:51:00;99874.97;;;14.75;96.63
5595;BME280;1003;48.002;7.788;2023-02-16T11:53:31;99895.72;;;14.97;100.00
5595;BME280;1003;48.002;7.788;2023-02-16T11:56:17;99917.38;;;15.13;89.74
5595;BME280;1003;48.002;7.788;2023-02-16T11:59:09;99928.31;;;15.15;89.49
5595;BME280;1003;48.002;7.788;2023-02-16T12:05:07;99932.56;;;15.12;82.79
5595;BME280;1003;48.002;7.788;2023-02-16T12:07:43;99923.47;;;15.51;83.07
5595;BME280;1003;48.002;7.788;2023-02-16T12:10:23;99918.97;;;15.67;78.02
5595;BME280;1003;48.002;7.788;2023-02-16T12:13:03;99907.69;;;15.82;74.07
5595;BME280;1003;48.002;7.788;2023-02-16T12:15:45;99914.25;;;15.93;75.72
5595;BME280;1003;48.002;7.788;2023-02-16T12:18:26;99917.56;;;16.36;72.16
5595;BME280;1003;48.002;7.788;2023-02-16T12:21:08;99932.06;;;16.31;67.37
5595;BME280;1003;48.002;7.788;2023-02-16T12:23:41;99968.72;;;16.16;65.51
5595;BME280;1003;48.002;7.788;2023-02-16T12:26:34;99969.38;;;16.24;66.79
5595;BME280;1003;48.002;7.788;2023-02-16T12:29:19;99960.81;;;16.31;65.40
5595;BME280;1003;48.002;7.788;2023-02-16T12:35:29;99942.22;;;16.31;60.87
5595;BME280;1003;48.002;7.788;2023-02-16T12:38:09;99940.34;;;15.97;62.22
5595;BME280;1003;48.002;7.788;2023-02-16T12:40:52;99938.50;;;16.05;62.61
5595;BME280;1003;48.002;7.788;2023-02-16T12:43:36;99937.84;;;15.95;61.74
5595;BME280;1003;48.002;7.788;2023-02-16T12:46:18;99932.94;;;15.88;64.57
5595;BME280;1003;48.002;7.788;2023-02-16T12:48:52;99938.84;;;15.88;62.51
5595;BME280;1003;48.002;7.788;2023-02-16T12:51:36;99931.75;;;15.61;62.23
5595;BME280;1003;48.002;7.788;2023-02-16T12:54:11;99918.00;;;15.74;68.07
5595;BME280;1003;48.002;7.788;2023-02-16T12:56:46;99917.94;;;15.75;65.18
5595;BME280;1003;48.002;7.788;2023-02-16T12:59:21;99913.25;;;15.56;65.68
5595;BME280;1003;48.002;7.788;2023-02-16T13:01:55;99911.19;;;15.30;67.15
5595;BME280;1003;48.002;7.788;2023-02-16T13:04:36;99909.97;;;15.51;67.83
5595;BME280;1003;48.002;7.788;2023-02-16T13:07:12;99914.81;;;15.63;68.20
5595;BME280;1003;48.002;7.788;2023-02-16T13:09:55;99901.94;;;15.73;69.56
5595;BME280;1003;48.002;7.788;2023-02-16T13:12:32;99900.25;;;15.74;70.63
5595;BME280;1003;48.002;7.788;2023-02-16T13:15:10;99895.88;;;15.81;72.49
5595;BME280;1003;48.002;7.788;2023-02-16T13:17:46;99896.50;;;15.92;70.32
5595;BME280;1003;48.002;7.788;2023-02-16T13:20:17;99890.25;;;16.08;71.11
5595;BME280;1003;48.002;7.788;2023-02-16T13:23:02;99886.22;;;15.98;71.89
5595;BME280;1003;48.002;7.788;2023-02-16T13:26:28;99880.06;;;15.69;70.46
5595;BME280;1003;48.002;7.788;2023-02-16T13:29:27;99870.94;;;15.59;73.42
5595;BME280;1003;48.002;7.788;2023-02-16T13:35:38;99865.41;;;15.39;75.31
5595;BME280;1003;48.002;7.788;2023-02-16T13:38:43;99864.50;;;15.43;77.05
5595;BME280;1003;48.002;7.788;2023-02-16T13:42:04;99873.75;;;15.44;76.32
5595;BME280;1003;48.002;7.788;2023-02-16T13:44:45;99869.22;;;15.63;78.33
5595;BME280;1003;48.002;7.788;2023-02-16T13:47:23;99865.34;;;15.42;78.09
5595;BME280;1003;48.002;7.788;2023-02-16T13:49:56;99868.81;;;15.39;77.99